Pagrindinis puslapis
METAR-TAF:

METAR-TAF

Oro uostai :

Džibučio

Džibutis, Džibutis

platuma: 11-33N, ilguma: 043-10E, Aukštis: 49 m

Dabartinis oras

Ataskaita buvo paskelbta 52 minutes, ne 05:00 UTC
Vėjas 10 kt iš Rytų/Pietryčių
Temperatūra 27°C
Drėgmė 84%
Slėgis 1017 hPa
Matomumas 10 km arba daugiau
Išsisklaidę debesys ne aukštis 2000 ft
Išsisklaidę debesys ne aukštis 13300 ft

METAR: HDAM 230500Z 12010KT 9999 SCT020 SCT133 27/24 Q1017

Laikas: 08:52 (05:52 UTC)

Prognozė

Ataskaita buvo paskelbta 52 minutes, ne 05:00 UTC
Prognozė galioja nuo 23 metu 06 UTC su 24 metu 06 UTC
Vėjas 10 kt iš Rytų
Matomumas 10 km arba daugiau
Išsisklaidę debesys ne aukštis 2300 ft
Išsisklaidę debesys ne aukštis 3000 ft
Tapsmas
nuo 23 metu 15 UTC su 23 metu 18 UTC
Vėjas 5 kt nuo kintamojo kryptimis
Matomumas 10 km arba daugiau
nėra debesų žemiau 1500 m ir nėra kamuolinių lietaus debesų
Tapsmas
tarp 24 ir 0/ UTC
Vėjas 10 kt iš Rytų
Išsisklaidę debesys ne aukštis 2000 ft

TAF: HDAM 230500Z 2306/2406 08010KT 9999 SCT023 SCT030 BECMG 2315/2318 VRB05KT CAVOK BECMG 240/2406 10010KT SCT020

Orai ataskaitas ir orų prognozės (METAR, TAF).

turimą stotys yra geltonos ir raudonos taškus žemėlapyje.

Perkelti pele per norėdami pamatyti stoties vardą.

Tada spustelėkite, norėdami matyti oro stebėjimo ir prognozės.

Norėdami pakeisti žemėlapį: spustelėkite ant žalios mygtukų su juodo kryžiaus žemyn,; žalią mygtuką su brūkšneliu, jei norite nutolinti; arba žalių rodyklių gretimoms žemėlapius.


METAR-TAF: